Time;durP1;ratioP1;P1;durP2;ratioP2;P2;SDS_P1;SDS_P2;PMS_P1;PMS_P2;Temp;Humidity;BMP_temperature;BMP_pressure;BME280_temperature;BME280_humidity;BME280_pressure;Samples;Min_cycle;Max_cycle;Signal;HPM_P1;HPM_P2
2020/12/06 00:01:10;;;;;;;;;;;;;;;-8.74;68.66;102960.11;1871039;77;20162;-42
2020/12/06 00:03:38;;;;;;;;;;;;;;;-8.75;68.78;102967.21;1871245;77;20138;-37
2020/12/06 00:06:06;;;;;;;;;;;;;;;-8.77;68.91;102966.16;1869537;75;20125;-37
2020/12/06 00:08:33;;;;;;;;;;;;;;;-8.80;68.97;102955.34;1867518;76;20128;-37
2020/12/06 00:11:01;;;;;;;;;;;;;;;-8.84;69.07;102950.69;1867139;76;20132;-37
2020/12/06 00:13:29;;;;;;;;;;;;;;;-8.87;69.18;102956.77;1867427;77;20149;-37
2020/12/06 00:15:57;;;;;;;;;;;;;;;-8.88;69.27;102956.23;1869604;75;20147;-35
2020/12/06 00:18:25;;;;;;;;;;;;;;;-8.88;69.37;102956.23;1868085;77;20273;-36
2020/12/06 00:20:53;;;;;;;;;;;;;;;-8.90;69.41;102958.63;1870939;77;20403;-36
2020/12/06 00:23:21;;;;;;;;;;;;;;;-8.92;69.48;102952.86;1871066;77;20174;-37
2020/12/06 00:25:50;;;;;;;;;;;;;;;-8.94;69.53;102950.56;1875062;75;20159;-36
2020/12/06 00:28:18;;;;;;;;;;;;;;;-8.97;69.57;102950.25;1902494;75;20140;-38
2020/12/06 00:30:45;;;;;;;;;;;;;;;-9.01;69.63;102941.82;1886501;75;20133;-36
2020/12/06 00:33:13;;;;;;;;;;;;;;;-9.05;69.74;102949.50;1882293;76;20252;-37
2020/12/06 00:35:41;;;;;;;;;;;;;;;-9.08;69.87;102944.14;1888937;75;20179;-36
2020/12/06 00:38:08;;;;;;;;;;;;;;;-9.09;69.99;102943.98;1902288;75;20274;-36
2020/12/06 00:40:36;;;;;;;;;;;;;;;-9.11;70.09;102946.73;1902593;75;20120;-36
2020/12/06 00:43:05;;;;;;;;;;;;;;;-9.12;70.18;102947.10;1897112;75;20183;-35
2020/12/06 00:45:32;;;;;;;;;;;;;;;-9.14;70.25;102941.38;1902374;75;20164;-35
2020/12/06 00:48:00;;;;;;;;;;;;;;;-9.15;70.32;102940.84;1902295;75;20133;-47
2020/12/06 00:50:30;;;;;;;;;;;;;;;-9.18;70.38;102944.34;1902042;75;20458;-36
2020/12/06 00:52:58;;;;;;;;;;;;;;;-9.21;70.47;102944.95;1902546;75;20227;-36
2020/12/06 00:55:26;;;;;;;;;;;;;;;-9.23;70.54;102939.19;1894935;75;20404;-35
2020/12/06 00:57:56;;;;;;;;;;;;;;;-9.24;70.64;102947.18;1870960;77;20222;-39
2020/12/06 01:00:23;;;;;;;;;;;;;;;-9.28;70.73;102949.81;1867637;77;20227;-36
2020/12/06 01:02:52;;;;;;;;;;;;;;;-9.30;70.79;102945.31;1867332;77;20177;-34
2020/12/06 01:05:19;;;;;;;;;;;;;;;-9.33;70.89;102936.14;1867494;77;20194;-39
2020/12/06 01:07:47;;;;;;;;;;;;;;;-9.37;71.00;102929.84;1867430;77;20127;-34
2020/12/06 01:10:16;;;;;;;;;;;;;;;-9.39;71.16;102941.89;1867512;77;20193;-37
2020/12/06 01:12:45;;;;;;;;;;;;;;;-9.43;71.29;102938.13;1894745;75;20266;-34
2020/12/06 01:15:13;;;;;;;;;;;;;;;-9.45;71.43;102938.34;1902504;75;20121;-37
2020/12/06 01:17:40;;;;;;;;;;;;;;;-9.48;71.55;102934.62;1902529;75;20199;-36
2020/12/06 01:20:08;;;;;;;;;;;;;;;-9.52;71.73;102933.44;1902377;75;20176;-36
2020/12/06 01:22:36;;;;;;;;;;;;;;;-9.54;71.87;102938.72;1873550;75;20131;-37
2020/12/06 01:25:06;;;;;;;;;;;;;;;-9.56;71.96;102940.57;1867133;77;20190;-35
2020/12/06 01:27:34;;;;;;;;;;;;;;;-9.58;72.07;102944.22;1867362;77;20120;-35
2020/12/06 01:30:01;;;;;;;;;;;;;;;-9.62;72.18;102946.31;1867281;77;20220;-35
2020/12/06 01:32:32;;;;;;;;;;;;;;;-9.64;72.32;102943.98;1867470;77;20176;-35
2020/12/06 01:35:03;;;;;;;;;;;;;;;-9.67;72.45;102940.78;1867641;77;20133;-36
2020/12/06 01:37:31;;;;;;;;;;;;;;;-9.69;72.61;102951.14;1896856;75;20433;-36
2020/12/06 01:39:59;;;;;;;;;;;;;;;-9.71;72.79;102945.02;1902248;75;20218;-37
2020/12/06 01:42:27;;;;;;;;;;;;;;;-9.75;72.92;102946.73;1902263;75;20382;-37
2020/12/06 01:44:58;;;;;;;;;;;;;;;-9.76;73.03;102950.00;1902333;75;20278;-35
2020/12/06 01:47:29;;;;;;;;;;;;;;;-9.79;73.21;102954.42;1902541;75;20279;-35
2020/12/06 01:49:56;;;;;;;;;;;;;;;-9.79;73.42;102957.33;1902492;75;20140;-36
2020/12/06 01:52:29;;;;;;;;;;;;;;;-9.80;73.51;102956.80;1901357;75;20179;-36
2020/12/06 01:54:54;;;;;;;;;;;;;;;-9.83;73.67;102959.02;1902166;75;20283;-36
2020/12/06 01:57:22;;;;;;;;;;;;;;;-9.85;73.75;102955.08;1878413;75;20217;-36
2020/12/06 01:59:49;;;;;;;;;;;;;;;-9.87;73.87;102955.66;1870793;77;20174;-35
2020/12/06 02:02:17;;;;;;;;;;;;;;;-9.89;73.96;102948.25;1870849;77;20138;-36
2020/12/06 02:04:46;;;;;;;;;;;;;;;-9.90;74.08;102947.72;1870747;77;20143;-36
2020/12/06 02:07:13;;;;;;;;;;;;;;;-9.91;74.26;102947.22;1870856;77;20161;-34
2020/12/06 02:09:43;;;;;;;;;;;;;;;-9.91;74.42;102948.09;1871178;77;20221;-36
2020/12/06 02:12:10;;;;;;;;;;;;;;;-9.92;74.49;102954.30;1870598;77;20225;-36
2020/12/06 02:14:39;;;;;;;;;;;;;;;-9.94;74.59;102951.60;1871064;77;20519;-37
2020/12/06 02:17:07;;;;;;;;;;;;;;;-9.95;74.69;102957.78;1868280;77;20131;-36
2020/12/06 02:19:35;;;;;;;;;;;;;;;-9.97;74.81;102952.91;1867430;77;20269;-35
2020/12/06 02:22:02;;;;;;;;;;;;;;;-9.99;74.93;102954.05;1867250;77;20136;-35
2020/12/06 02:26:51;;;;;;;;;;;;;;;-9.94;75.14;102959.21;1926890;74;20265;-36
2020/12/06 02:29:19;;;;;;;;;;;;;;;-10.00;75.21;102950.98;1885925;75;20172;-36
2020/12/06 02:31:47;;;;;;;;;;;;;;;-10.02;75.30;102952.45;1900619;75;20243;-37
2020/12/06 02:34:15;;;;;;;;;;;;;;;-10.03;75.38;102955.73;1903256;75;20270;-36
2020/12/06 02:36:43;;;;;;;;;;;;;;;-10.04;75.48;102952.66;1903057;75;20140;-36
2020/12/06 02:39:11;;;;;;;;;;;;;;;-10.05;75.60;102953.44;1902964;75;20226;-37
2020/12/06 02:41:44;;;;;;;;;;;;;;;-10.06;75.69;102951.63;1868144;75;20177;-36
2020/12/06 02:44:13;;;;;;;;;;;;;;;-10.08;75.81;102956.55;1867966;77;20127;-35
2020/12/06 02:46:42;;;;;;;;;;;;;;;-10.07;75.96;102951.10;1868112;77;20186;-35
2020/12/06 02:49:09;;;;;;;;;;;;;;;-10.10;76.08;102955.48;1869716;77;20186;-36
2020/12/06 02:51:37;;;;;;;;;;;;;;;-10.10;76.17;102958.02;1870355;77;20395;-36
2020/12/06 02:54:05;;;;;;;;;;;;;;;-10.12;76.23;102955.72;1867790;77;20261;-36
2020/12/06 02:56:33;;;;;;;;;;;;;;;-10.14;76.30;102961.36;1867836;77;20307;-36
2020/12/06 02:59:01;;;;;;;;;;;;;;;-10.17;76.41;102959.44;1868222;76;20136;-36
2020/12/06 03:01:30;;;;;;;;;;;;;;;-10.17;76.48;102961.97;1868127;76;20457;-35
2020/12/06 03:03:58;;;;;;;;;;;;;;;-10.18;76.61;102957.67;1868349;77;20187;-36
2020/12/06 03:06:27;;;;;;;;;;;;;;;-10.19;76.69;102955.87;1868043;77;20116;-37
2020/12/06 03:08:55;;;;;;;;;;;;;;;-10.19;76.76;102954.97;1868107;76;20160;-36
2020/12/06 03:11:27;;;;;;;;;;;;;;;-10.21;76.84;102952.27;1868169;77;20206;-37
2020/12/06 03:13:55;;;;;;;;;;;;;;;-10.22;76.92;102955.91;1868065;76;20160;-36
2020/12/06 03:16:24;;;;;;;;;;;;;;;-10.24;76.99;102950.67;1874896;76;20128;-36
2020/12/06 03:18:52;;;;;;;;;;;;;;;-10.24;77.12;102953.61;1868080;77;20220;-37
2020/12/06 03:21:19;;;;;;;;;;;;;;;-10.23;77.21;102962.62;1869692;75;20204;-37
2020/12/06 03:23:47;;;;;;;;;;;;;;;-10.24;77.29;102965.89;1868215;77;20168;-37
2020/12/06 03:26:15;;;;;;;;;;;;;;;-10.24;77.41;102964.63;1867957;77;20170;-36
2020/12/06 03:28:42;;;;;;;;;;;;;;;-10.24;77.51;102959.95;1867968;77;20174;-35
2020/12/06 03:31:10;;;;;;;;;;;;;;;-10.25;77.56;102962.85;1868097;77;20455;-37
2020/12/06 03:33:37;;;;;;;;;;;;;;;-10.26;77.67;102964.86;1868160;77;20153;-34
2020/12/06 03:36:05;;;;;;;;;;;;;;;-10.28;77.79;102972.66;1867953;77;20269;-36
2020/12/06 03:38:32;;;;;;;;;;;;;;;-10.28;77.86;102979.00;1867386;77;20229;-35
2020/12/06 03:41:00;;;;;;;;;;;;;;;-10.29;77.94;102969.97;1867476;77;20149;-35
2020/12/06 03:43:28;;;;;;;;;;;;;;;-10.30;78.03;102970.70;1867790;77;20135;-36
2020/12/06 03:45:56;;;;;;;;;;;;;;;-10.31;78.11;102974.91;1848258;77;20221;-37
2020/12/06 03:48:25;;;;;;;;;;;;;;;-10.32;78.16;102959.53;1867729;77;20178;-36
2020/12/06 03:50:52;;;;;;;;;;;;;;;-10.34;78.25;102969.50;1867335;77;20245;-35
2020/12/06 03:53:20;;;;;;;;;;;;;;;-10.34;78.36;102963.53;1867752;77;20166;-35
2020/12/06 03:55:47;;;;;;;;;;;;;;;-10.35;78.46;102966.44;1867355;77;20190;-36
2020/12/06 03:58:15;;;;;;;;;;;;;;;-10.36;78.60;102976.05;1867719;77;20269;-36
2020/12/06 04:00:43;;;;;;;;;;;;;;;-10.37;78.69;102968.30;1832939;78;20224;-35
2020/12/06 04:03:10;;;;;;;;;;;;;;;-10.38;78.81;102978.81;1832909;78;20132;-36
2020/12/06 04:05:38;;;;;;;;;;;;;;;-10.38;78.90;102977.55;1832631;78;20145;-35
2020/12/06 04:08:05;;;;;;;;;;;;;;;-10.39;79.00;102974.84;1832914;78;20132;-36
2020/12/06 04:10:33;;;;;;;;;;;;;;;-10.40;79.07;102973.95;1832708;78;20376;-37
2020/12/06 04:13:01;;;;;;;;;;;;;;;-10.40;79.22;102970.51;1832469;78;20318;-36
2020/12/06 04:15:28;;;;;;;;;;;;;;;-10.41;79.30;102979.75;1832720;78;20180;-37
2020/12/06 04:17:57;;;;;;;;;;;;;;;-10.40;79.45;102987.89;1832865;78;20125;-37
2020/12/06 04:20:25;;;;;;;;;;;;;;;-10.40;79.57;102985.35;1832783;78;20263;-34
2020/12/06 04:22:53;;;;;;;;;;;;;;;-10.42;79.71;102980.48;1846954;77;20233;-35
2020/12/06 04:25:21;;;;;;;;;;;;;;;-10.41;79.81;102985.19;1859280;77;20225;-35
2020/12/06 04:27:48;;;;;;;;;;;;;;;-10.42;79.89;102984.28;1841748;78;20133;-37
2020/12/06 04:30:16;;;;;;;;;;;;;;;-10.43;79.96;102980.35;1834375;77;20125;-35
2020/12/06 04:32:44;;;;;;;;;;;;;;;-10.44;80.04;102984.89;1833063;78;20176;-35
2020/12/06 04:35:12;;;;;;;;;;;;;;;-10.45;80.12;102983.98;1834364;77;20190;-36
2020/12/06 04:37:40;;;;;;;;;;;;;;;-10.48;80.18;102979.86;1835169;77;20179;-37
2020/12/06 04:40:09;;;;;;;;;;;;;;;-10.50;80.27;102977.55;1834099;77;20203;-37
2020/12/06 04:42:37;;;;;;;;;;;;;;;-10.52;80.37;102978.66;1836094;77;20133;-36
2020/12/06 04:45:05;;;;;;;;;;;;;;;-10.54;80.42;102975.05;1846420;77;20225;-37
2020/12/06 04:47:43;;;;;;;;;;;;;;;-10.56;80.50;102976.89;1866247;77;20158;-36
2020/12/06 04:50:11;;;;;;;;;;;;;;;-10.58;80.60;102975.48;1866648;77;20138;-38
2020/12/06 04:52:42;;;;;;;;;;;;;;;-10.59;80.67;102972.42;1811757;78;20356;-36
2020/12/06 04:55:11;;;;;;;;;;;;;;;-10.59;80.75;102981.66;1830666;78;20477;-38
2020/12/06 04:57:39;;;;;;;;;;;;;;;-10.61;80.84;102975.52;1841607;78;20124;-35
2020/12/06 05:00:09;;;;;;;;;;;;;;;-10.63;80.89;102977.89;1841704;78;20136;-36
2020/12/06 05:02:38;;;;;;;;;;;;;;;-10.63;80.98;102976.63;1841543;78;20255;-36
2020/12/06 05:05:06;;;;;;;;;;;;;;;-10.64;81.02;102979.02;1841694;78;20140;-37
2020/12/06 05:07:34;;;;;;;;;;;;;;;-10.66;81.10;102979.22;1841614;78;20287;-35
2020/12/06 05:10:03;;;;;;;;;;;;;;;-10.67;81.20;102988.82;1846521;77;20185;-35
2020/12/06 05:12:31;;;;;;;;;;;;;;;-10.67;81.29;102988.45;1832383;78;20179;-36
2020/12/06 05:14:58;;;;;;;;;;;;;;;-10.67;81.37;102992.25;1832732;78;20200;-36
2020/12/06 05:17:26;;;;;;;;;;;;;;;-10.67;81.42;102995.16;1833516;77;20211;-36
2020/12/06 05:19:54;;;;;;;;;;;;;;;-10.67;81.47;103004.02;1841544;78;20184;-36
2020/12/06 05:22:27;;;;;;;;;;;;;;;-10.67;81.52;103004.92;1841620;77;20125;-37
2020/12/06 05:24:54;;;;;;;;;;;;;;;-10.69;81.57;102999.16;1832769;78;20533;-38
2020/12/06 05:27:22;;;;;;;;;;;;;;;-10.68;81.62;103004.76;1804912;77;20134;-35
2020/12/06 05:29:50;;;;;;;;;;;;;;;-10.69;81.68;103011.45;1832261;78;20228;-38
2020/12/06 05:32:18;;;;;;;;;;;;;;;-10.68;81.73;103008.19;1803219;78;20129;-35
2020/12/06 05:34:46;;;;;;;;;;;;;;;-10.67;81.79;103002.39;1833476;78;20135;-37
2020/12/06 05:37:14;;;;;;;;;;;;;;;-10.66;81.86;103010.53;1792777;78;20229;-37
2020/12/06 05:39:42;;;;;;;;;;;;;;;-10.63;81.91;103011.23;1810124;78;20168;-37
2020/12/06 05:42:10;;;;;;;;;;;;;;;-10.62;81.97;103015.16;1809570;78;20279;-37
2020/12/06 05:44:37;;;;;;;;;;;;;;;-10.59;82.00;103018.40;1803714;80;20150;-37
2020/12/06 05:47:14;;;;;;;;;;;;;;;-10.57;82.04;103014.03;1807859;78;20253;-38
2020/12/06 05:49:44;;;;;;;;;;;;;;;-10.54;82.08;103019.41;1822027;78;20220;-38
2020/12/06 05:52:12;;;;;;;;;;;;;;;-10.50;82.07;103018.97;1789688;78;20260;-39
2020/12/06 05:54:40;;;;;;;;;;;;;;;-10.46;82.08;103024.38;1820931;78;20168;-36
2020/12/06 05:57:07;;;;;;;;;;;;;;;-10.42;82.08;103023.94;1804319;78;20230;-36
2020/12/06 05:59:35;;;;;;;;;;;;;;;-10.38;82.06;103023.55;1811745;78;20125;-37
2020/12/06 06:02:02;;;;;;;;;;;;;;;-10.35;82.00;103018.41;1779373;78;20227;-36
2020/12/06 06:04:30;;;;;;;;;;;;;;;-10.32;81.96;103022.55;1810230;78;20139;-40
2020/12/06 06:07:00;;;;;;;;;;;;;;;-10.29;81.95;103020.30;1808415;78;20125;-37
2020/12/06 06:09:27;;;;;;;;;;;;;;;-10.25;81.88;103018.64;1794479;78;20189;-36
2020/12/06 06:12:04;;;;;;;;;;;;;;;-10.23;81.83;103020.94;1796603;78;20371;-44
2020/12/06 06:14:32;;;;;;;;;;;;;;;-10.21;81.76;103018.56;1823944;78;20137;-36
2020/12/06 06:16:59;;;;;;;;;;;;;;;-10.19;81.77;103020.53;1828337;78;20190;-38
2020/12/06 06:19:28;;;;;;;;;;;;;;;-10.15;81.73;103017.89;1807806;78;20186;-38
2020/12/06 06:21:56;;;;;;;;;;;;;;;-10.12;81.68;103015.32;1803837;78;20483;-36
2020/12/06 06:26:51;;;;;;;;;;;;;;;-9.97;81.63;103012.52;1903214;74;20252;-39
2020/12/06 06:29:20;;;;;;;;;;;;;;;-9.98;81.55;103012.02;1873778;75;20436;-37
2020/12/06 06:31:50;;;;;;;;;;;;;;;-9.96;81.47;103009.25;1867889;77;20182;-38
2020/12/06 06:34:22;;;;;;;;;;;;;;;-9.96;81.40;103013.06;1882008;75;20283;-36
2020/12/06 06:36:49;;;;;;;;;;;;;;;-9.91;81.36;103015.72;1849649;75;20170;-37
2020/12/06 06:39:21;;;;;;;;;;;;;;;-9.89;81.26;103012.94;1869730;75;20140;-37
2020/12/06 06:42:09;;;;;;;;;;;;;;;-9.89;81.12;103012.58;1867675;77;20384;-37
2020/12/06 06:44:33;;;;;;;;;;;;;;;-9.86;81.10;103008.20;1866815;77;20130;-36
2020/12/06 06:47:02;;;;;;;;;;;;;;;-9.82;81.04;102998.50;1835411;77;20169;-38
2020/12/06 06:49:30;;;;;;;;;;;;;;;-9.79;80.92;103015.69;1858686;75;20129;-38
2020/12/06 06:51:59;;;;;;;;;;;;;;;-9.77;80.83;103010.00;1879249;75;20288;-38
2020/12/06 06:54:29;;;;;;;;;;;;;;;-9.71;80.82;103018.61;1840759;76;20239;-37
2020/12/06 06:56:58;;;;;;;;;;;;;;;-9.64;80.74;103013.41;1897371;75;20406;-37
2020/12/06 06:59:36;;;;;;;;;;;;;;;-9.55;80.65;103011.81;1878932;75;20418;-37
2020/12/06 07:02:06;;;;;;;;;;;;;;;-9.48;80.46;103012.95;1824257;78;20486;-37
2020/12/06 07:04:34;;;;;;;;;;;;;;;-9.41;80.31;103002.66;1830374;78;20176;-37
2020/12/06 07:07:02;;;;;;;;;;;;;;;-9.36;80.12;103006.55;1823235;77;20273;-39
2020/12/06 07:09:30;;;;;;;;;;;;;;;-9.28;80.00;103003.14;1844657;77;20221;-38
2020/12/06 07:12:00;;;;;;;;;;;;;;;-9.10;79.81;103005.69;1827089;77;20174;-36
2020/12/06 07:14:28;;;;;;;;;;;;;;;-8.95;79.54;103005.56;1827062;77;20137;-38
2020/12/06 07:16:57;;;;;;;;;;;;;;;-8.79;79.23;103007.94;1804169;78;20200;-37
2020/12/06 07:19:25;;;;;;;;;;;;;;;-8.67;78.80;103001.91;1803776;78;20196;-37
2020/12/06 07:21:54;;;;;;;;;;;;;;;-8.55;78.33;103008.17;1822391;78;20299;-36
2020/12/06 07:24:22;;;;;;;;;;;;;;;-8.48;77.75;103004.20;1832466;77;20486;-38
2020/12/06 07:26:49;;;;;;;;;;;;;;;-8.41;77.35;103000.59;1823420;77;20166;-38
2020/12/06 07:29:17;;;;;;;;;;;;;;;-8.30;77.07;103005.05;1825068;78;20228;-37
2020/12/06 07:31:44;;;;;;;;;;;;;;;-8.08;76.60;103011.41;1804898;78;20160;-37
2020/12/06 07:34:12;;;;;;;;;;;;;;;-7.90;76.01;103007.15;1798306;78;20169;-38
2020/12/06 07:36:40;;;;;;;;;;;;;;;-7.74;75.42;103004.89;1818040;78;20398;-38
2020/12/06 07:39:16;;;;;;;;;;;;;;;-7.58;74.93;103002.50;1795397;77;20199;-38
2020/12/06 07:41:46;;;;;;;;;;;;;;;-7.35;74.33;103001.72;1817497;77;20428;-37
2020/12/06 07:44:14;;;;;;;;;;;;;;;-7.18;73.60;102991.40;1797405;78;20193;-38
2020/12/06 07:46:41;;;;;;;;;;;;;;;-6.98;73.03;103003.02;1795026;80;20135;-37
2020/12/06 07:49:09;;;;;;;;;;;;;;;-6.79;72.05;102993.20;1810985;77;20206;-36
2020/12/06 07:51:38;;;;;;;;;;;;;;;-6.72;71.16;102996.44;1832307;77;20154;-38
2020/12/06 07:54:05;;;;;;;;;;;;;;;-6.66;70.53;102996.08;1826076;77;20141;-39
2020/12/06 07:56:34;;;;;;;;;;;;;;;-6.51;69.87;102981.77;1833386;77;20297;-37
2020/12/06 07:59:19;;;;;;;;;;;;;;;-6.57;68.87;102997.81;1799007;77;20190;-36
2020/12/06 08:01:47;;;;;;;;;;;;;;;-6.60;68.65;102997.52;1841127;77;20216;-37
2020/12/06 08:04:26;;;;;;;;;;;;;;;-6.41;68.55;102992.37;1817631;78;20139;-39
2020/12/06 08:06:56;;;;;;;;;;;;;;;-6.31;68.16;103006.48;1840001;77;20164;-36
2020/12/06 08:09:26;;;;;;;;;;;;;;;-6.27;67.68;103000.88;1829932;77;20207;-39
2020/12/06 08:11:54;;;;;;;;;;;;;;;-6.34;67.35;102995.98;1815883;78;20179;-39
2020/12/06 08:14:22;;;;;;;;;;;;;;;-6.44;67.28;102997.23;1824810;78;20477;-39
2020/12/06 08:17:00;;;;;;;;;;;;;;;-6.51;67.14;102987.24;1818735;78;20192;-36
2020/12/06 08:19:28;;;;;;;;;;;;;;;-6.73;67.02;102996.29;1815919;78;20133;-38
2020/12/06 08:22:01;;;;;;;;;;;;;;;-6.90;67.39;102998.63;1829923;77;20295;-37
2020/12/06 08:24:31;;;;;;;;;;;;;;;-6.95;67.70;102997.28;1834167;77;20196;-38
2020/12/06 08:27:00;;;;;;;;;;;;;;;-7.00;68.05;102993.06;1840683;77;20176;-38
2020/12/06 08:29:36;;;;;;;;;;;;;;;-6.96;67.95;102999.34;1844204;77;20118;-39
2020/12/06 08:32:05;;;;;;;;;;;;;;;-6.96;67.95;102979.85;1828060;77;20232;-38
2020/12/06 08:34:33;;;;;;;;;;;;;;;-6.97;67.85;102999.72;1836791;77;20125;-38
2020/12/06 08:37:17;;;;;;;;;;;;;;;-7.04;67.82;102988.45;1834589;77;20376;-38
2020/12/06 08:39:46;;;;;;;;;;;;;;;-7.13;67.89;102998.17;1833476;77;20165;-37
2020/12/06 08:42:18;;;;;;;;;;;;;;;-7.19;68.25;102992.52;1813392;78;20575;-39
2020/12/06 08:44:59;;;;;;;;;;;;;;;-7.23;68.33;102982.83;1808650;78;20294;-38
2020/12/06 08:47:30;;;;;;;;;;;;;;;-7.31;68.44;102966.45;1827518;78;20525;-38
2020/12/06 08:50:09;;;;;;;;;;;;;;;-7.36;68.63;102978.27;1837604;77;20204;-38
2020/12/06 08:52:37;;;;;;;;;;;;;;;-7.39;68.76;102969.05;1818326;77;20373;-39
2020/12/06 08:55:25;;;;;;;;;;;;;;;-7.35;68.96;102963.50;1811725;78;20220;-39
2020/12/06 08:57:53;;;;;;;;;;;;;;;-7.28;69.11;102962.00;1828122;77;20377;-37
2020/12/06 09:00:21;;;;;;;;;;;;;;;-7.19;69.02;102966.67;1808260;78;20198;-39
2020/12/06 09:02:50;;;;;;;;;;;;;;;-7.23;68.67;102964.61;1784889;77;20184;-39
2020/12/06 09:05:18;;;;;;;;;;;;;;;-7.23;68.71;102963.71;1827105;77;20125;-39
2020/12/06 09:07:46;;;;;;;;;;;;;;;-7.14;68.60;102964.15;1829400;78;20137;-38
2020/12/06 09:10:14;;;;;;;;;;;;;;;-7.20;68.22;102962.32;1820530;78;20610;-36
2020/12/06 09:12:42;;;;;;;;;;;;;;;-7.22;68.32;102960.41;1813900;78;20271;-39
2020/12/06 09:15:11;;;;;;;;;;;;;;;-7.20;68.33;102968.70;1816682;78;20400;-39
2020/12/06 09:17:38;;;;;;;;;;;;;;;-7.10;68.36;102971.34;1829037;77;20190;-38
2020/12/06 09:20:07;;;;;;;;;;;;;;;-7.01;68.18;102961.05;1829321;78;20378;-38
2020/12/06 09:22:35;;;;;;;;;;;;;;;-6.99;67.86;102969.36;1828521;77;20136;-38
2020/12/06 09:25:03;;;;;;;;;;;;;;;-7.03;67.76;102970.23;1830700;77;20160;-39
2020/12/06 09:27:31;;;;;;;;;;;;;;;-6.97;67.94;102966.95;1833059;77;20196;-38
2020/12/06 09:29:59;;;;;;;;;;;;;;;-6.98;67.83;102958.41;1831296;77;20326;-38
2020/12/06 09:32:29;;;;;;;;;;;;;;;-7.03;67.74;102958.77;1831541;77;20454;-43
2020/12/06 09:34:58;;;;;;;;;;;;;;;-7.03;67.87;102952.39;1796014;77;20201;-40
2020/12/06 09:37:25;;;;;;;;;;;;;;;-6.94;67.87;102959.19;1830203;77;20141;-38
2020/12/06 09:39:53;;;;;;;;;;;;;;;-6.88;67.65;102966.11;1819499;78;20133;-38
2020/12/06 09:42:22;;;;;;;;;;;;;;;-6.86;67.59;102960.78;1829094;77;21153;-38
2020/12/06 09:44:52;;;;;;;;;;;;;;;-6.80;67.49;102960.42;1793273;79;20449;-39
2020/12/06 09:47:20;;;;;;;;;;;;;;;-6.74;67.28;102969.89;1807440;78;20139;-39
2020/12/06 09:49:48;;;;;;;;;;;;;;;-6.78;67.00;102965.29;1807598;78;20467;-37
2020/12/06 09:52:16;;;;;;;;;;;;;;;-6.82;66.98;102961.03;1807599;78;20430;-39
2020/12/06 09:54:44;;;;;;;;;;;;;;;-6.82;66.86;102958.48;1803181;78;20279;-39
2020/12/06 09:57:12;;;;;;;;;;;;;;;-6.86;66.86;102948.03;1804187;78;20146;-40
2020/12/06 09:59:39;;;;;;;;;;;;;;;-6.91;66.82;102945.45;1812064;78;20284;-39
2020/12/06 10:02:07;;;;;;;;;;;;;;;-6.93;67.00;102955.89;1817897;78;20239;-40
2020/12/06 10:04:35;;;;;;;;;;;;;;;-6.83;67.07;102964.00;1816198;78;20238;-39
2020/12/06 10:07:06;;;;;;;;;;;;;;;-6.70;66.99;102963.05;1781649;78;20303;-42
2020/12/06 10:09:34;;;;;;;;;;;;;;;-6.62;66.71;102961.14;1810945;78;20202;-42
2020/12/06 10:12:02;;;;;;;;;;;;;;;-6.55;66.58;102940.52;1833363;77;20210;-41
2020/12/06 10:14:30;;;;;;;;;;;;;;;-6.53;66.28;102961.97;1829283;77;20471;-39
2020/12/06 10:16:58;;;;;;;;;;;;;;;-6.57;65.99;102954.45;1830662;77;20144;-42
2020/12/06 10:19:26;;;;;;;;;;;;;;;-6.64;66.00;102952.48;1832710;77;20387;-41
2020/12/06 10:21:53;;;;;;;;;;;;;;;-6.64;66.04;102947.39;1821918;77;20160;-42
2020/12/06 10:26:53;;;;;;;;;;;;;;;-6.50;66.21;102942.70;1896925;74;20237;-42
2020/12/06 10:29:21;;;;;;;;;;;;;;;-6.41;66.08;102925.14;1859426;75;20193;-38
2020/12/06 10:31:50;;;;;;;;;;;;;;;-6.37;65.87;102929.39;1876086;76;20199;-38
2020/12/06 10:34:18;;;;;;;;;;;;;;;-6.33;65.88;102923.78;1869844;75;20133;-39
2020/12/06 10:36:54;;;;;;;;;;;;;;;-6.20;65.89;102922.80;1872920;75;20134;-42
2020/12/06 10:39:24;;;;;;;;;;;;;;;-6.07;65.74;102919.64;1879294;75;20135;-41
2020/12/06 10:41:54;;;;;;;;;;;;;;;-6.02;65.34;102917.47;1873871;75;20223;-41
2020/12/06 10:44:23;;;;;;;;;;;;;;;-6.03;65.37;102925.50;1869569;75;20436;-42
2020/12/06 10:46:51;;;;;;;;;;;;;;;-6.05;65.24;102916.47;1870099;75;20589;-40
2020/12/06 10:49:19;;;;;;;;;;;;;;;-6.01;65.42;102912.88;1875566;75;20235;-39
2020/12/06 10:51:47;;;;;;;;;;;;;;;-5.99;65.34;102915.19;1871791;75;20192;-39
2020/12/06 10:54:15;;;;;;;;;;;;;;;-5.94;65.37;102912.25;1871599;75;20445;-43
2020/12/06 10:56:43;;;;;;;;;;;;;;;-5.81;65.40;102907.38;1879352;75;20204;-42
2020/12/06 10:59:11;;;;;;;;;;;;;;;-5.67;65.20;102913.27;1871821;75;20167;-39
2020/12/06 11:01:39;;;;;;;;;;;;;;;-5.53;64.91;102910.59;1868187;75;20197;-39
2020/12/06 11:04:07;;;;;;;;;;;;;;;-5.49;64.55;102915.18;1874694;75;20275;-41
2020/12/06 11:06:35;;;;;;;;;;;;;;;-5.48;64.32;102920.80;1869019;75;20281;-43
2020/12/06 11:09:02;;;;;;;;;;;;;;;-5.51;64.14;102901.37;1874308;75;20178;-51
2020/12/06 11:11:31;;;;;;;;;;;;;;;-5.63;64.02;102913.12;1871032;75;20181;-41
2020/12/06 11:13:59;;;;;;;;;;;;;;;-5.76;64.23;102905.20;1873835;75;20271;-41
2020/12/06 11:16:26;;;;;;;;;;;;;;;-5.79;64.64;102907.14;1870936;75;20415;-42
2020/12/06 11:18:54;;;;;;;;;;;;;;;-5.68;64.64;102902.54;1869408;75;20182;-41
2020/12/06 11:21:24;;;;;;;;;;;;;;;-5.64;64.56;102914.78;1874934;75;20140;-42
2020/12/06 11:23:55;;;;;;;;;;;;;;;-5.56;64.57;102910.70;1873691;75;20214;-41
2020/12/06 11:26:25;;;;;;;;;;;;;;;-5.47;64.50;102904.71;1872281;75;20196;-43
2020/12/06 11:28:53;;;;;;;;;;;;;;;-5.40;64.21;102908.67;1841412;75;20171;-41
2020/12/06 11:31:21;;;;;;;;;;;;;;;-5.44;64.03;102900.22;1869211;75;20176;-42
2020/12/06 11:33:50;;;;;;;;;;;;;;;-5.47;63.83;102894.87;1867640;75;20142;-41
2020/12/06 11:36:19;;;;;;;;;;;;;;;-5.45;63.86;102907.02;1848249;75;20308;-41
2020/12/06 11:38:46;;;;;;;;;;;;;;;-5.42;63.83;102900.87;1871787;75;20238;-43
2020/12/06 11:41:14;;;;;;;;;;;;;;;-5.43;63.63;102901.63;1874718;75;20272;-41
2020/12/06 11:43:43;;;;;;;;;;;;;;;-5.49;63.60;102899.84;1874599;75;20197;-42
2020/12/06 11:46:11;;;;;;;;;;;;;;;-5.49;63.81;102898.95;1875711;75;20191;-42
2020/12/06 11:48:39;;;;;;;;;;;;;;;-5.44;63.83;102898.94;1873117;75;20172;-41
2020/12/06 11:51:07;;;;;;;;;;;;;;;-5.37;63.92;102894.47;1868357;75;20182;-41
2020/12/06 11:53:36;;;;;;;;;;;;;;;-5.25;63.80;102880.13;1869901;75;20217;-42
2020/12/06 11:56:03;;;;;;;;;;;;;;;-5.19;63.54;102894.20;1867545;75;20166;-38
2020/12/06 11:58:31;;;;;;;;;;;;;;;-5.16;63.50;102902.11;1875674;75;20410;-38
2020/12/06 12:00:59;;;;;;;;;;;;;;;-5.17;63.37;102892.64;1870960;75;20183;-39
2020/12/06 12:03:30;;;;;;;;;;;;;;;-5.25;63.26;102891.63;1869510;75;20175;-38
2020/12/06 12:05:58;;;;;;;;;;;;;;;-5.32;63.26;102894.48;1868655;75;20245;-37
2020/12/06 12:08:25;;;;;;;;;;;;;;;-5.42;63.20;102893.20;1867830;75;20554;-37
2020/12/06 12:10:53;;;;;;;;;;;;;;;-5.47;63.44;102895.77;1873188;75;20475;-39
2020/12/06 12:13:20;;;;;;;;;;;;;;;-5.49;63.62;102903.68;1874303;75;20194;-39
2020/12/06 12:15:49;;;;;;;;;;;;;;;-5.50;63.88;102903.16;1879039;75;20167;-38
2020/12/06 12:18:19;;;;;;;;;;;;;;;-5.51;64.00;102891.15;1855626;75;20154;-41
2020/12/06 12:20:50;;;;;;;;;;;;;;;-5.54;64.18;102899.86;1872977;75;20283;-41
2020/12/06 12:23:24;;;;;;;;;;;;;;;-5.56;64.35;102902.66;1851448;75;20472;-41
2020/12/06 12:25:52;;;;;;;;;;;;;;;-5.62;64.50;102894.11;1878143;75;20377;-41
2020/12/06 12:28:21;;;;;;;;;;;;;;;-5.67;64.71;102895.39;1874175;75;20630;-42
2020/12/06 12:30:49;;;;;;;;;;;;;;;-5.69;64.97;102898.57;1869413;75;20177;-42
2020/12/06 12:33:17;;;;;;;;;;;;;;;-5.71;65.17;102900.13;1876316;75;20179;-51
2020/12/06 12:35:46;;;;;;;;;;;;;;;-5.72;65.19;102900.89;1870963;75;20186;-40
2020/12/06 12:38:14;;;;;;;;;;;;;;;-5.74;65.16;102906.23;1872394;75;20178;-42
2020/12/06 12:40:41;;;;;;;;;;;;;;;-5.76;65.15;102905.20;1869951;75;20267;-42
2020/12/06 12:43:09;;;;;;;;;;;;;;;-5.77;65.18;102915.80;1872284;75;20194;-41
2020/12/06 12:45:42;;;;;;;;;;;;;;;-5.78;65.31;102920.81;1822374;75;20137;-41
2020/12/06 12:48:11;;;;;;;;;;;;;;;-5.79;65.50;102917.73;1862338;75;20454;-40